createdAt,value
2023-03-22T00:03:23.410Z,8
2023-03-22T00:08:29.609Z,8.3
2023-03-22T00:13:35.828Z,8
2023-03-22T00:18:42.002Z,8
2023-03-22T00:23:48.259Z,8.3
2023-03-22T00:28:54.510Z,8.6
2023-03-22T00:34:00.566Z,8.3
2023-03-22T00:39:06.780Z,8.3
2023-03-22T00:44:12.975Z,8.3
2023-03-22T00:49:19.145Z,8.3
2023-03-22T00:54:25.323Z,8.3
2023-03-22T00:59:31.516Z,8.3
2023-03-22T01:04:37.723Z,8.6
2023-03-22T01:09:42.943Z,8.3
2023-03-22T01:14:49.138Z,8.3
2023-03-22T01:19:55.404Z,8.3
2023-03-22T01:25:01.516Z,8.3
2023-03-22T01:30:07.710Z,8.3
2023-03-22T01:35:13.885Z,8
2023-03-22T01:40:20.125Z,7.6
2023-03-22T01:45:26.281Z,8
2023-03-22T01:50:32.533Z,7.6
2023-03-22T01:55:38.726Z,8.3
2023-03-22T02:00:44.850Z,8
2023-03-22T02:05:51.032Z,8.3
2023-03-22T02:10:57.300Z,8
2023-03-22T02:16:03.435Z,7.6
2023-03-22T02:21:08.698Z,8
2023-03-22T02:26:14.849Z,8.6
2023-03-22T02:31:21.095Z,7.6
2023-03-22T02:36:27.235Z,7.6
2023-03-22T02:41:33.585Z,8.3
2023-03-22T02:46:39.615Z,8.3
2023-03-22T02:51:45.867Z,8
2023-03-22T02:56:52.000Z,7.6
2023-03-22T03:01:58.358Z,8
2023-03-22T03:07:04.382Z,8.3
2023-03-22T03:12:10.569Z,8
2023-03-22T03:17:16.751Z,7.6
2023-03-22T03:22:22.962Z,8
2023-03-22T03:27:28.181Z,7.6
2023-03-22T03:32:34.390Z,8.6
2023-03-22T03:37:40.589Z,8
2023-03-22T03:42:46.746Z,8.3
2023-03-22T03:47:52.951Z,8
2023-03-22T03:52:59.129Z,8
2023-03-22T03:58:05.329Z,8
2023-03-22T04:03:11.526Z,7.6
2023-03-22T04:08:17.715Z,8
2023-03-22T04:13:23.890Z,8
2023-03-22T04:18:30.143Z,7.3
2023-03-22T04:23:36.292Z,8.3
2023-03-22T04:28:42.485Z,7.6
2023-03-22T04:33:47.714Z,8
2023-03-22T04:38:53.990Z,7.6
2023-03-22T04:44:00.092Z,7.6
2023-03-22T04:49:06.314Z,8
2023-03-22T04:54:12.480Z,8.3
2023-03-22T04:59:18.669Z,8
2023-03-22T05:04:24.859Z,7.3
2023-03-22T05:09:31.086Z,8
2023-03-22T05:14:37.245Z,8
2023-03-22T05:19:43.567Z,8
2023-03-22T05:24:49.740Z,7.3
2023-03-22T05:29:55.816Z,7.3
2023-03-22T05:35:02.042Z,7.6
2023-03-22T05:40:07.243Z,7.3
2023-03-22T05:45:13.447Z,7.6
2023-03-22T05:50:19.639Z,7.6
2023-03-22T05:55:25.826Z,7.6
2023-03-22T06:00:32.040Z,7.3
2023-03-22T06:05:38.231Z,7.6
2023-03-22T06:10:44.508Z,7.3
2023-03-22T06:15:50.593Z,7.3
2023-03-22T06:20:56.772Z,7.6
2023-03-22T06:26:02.967Z,7.6
2023-03-22T06:31:09.201Z,7.6
2023-03-22T06:36:15.367Z,7.3
2023-03-22T06:41:21.601Z,7.6
2023-03-22T06:46:26.800Z,8
2023-03-22T06:51:32.953Z,7.6
2023-03-22T06:56:39.167Z,7.6
2023-03-22T07:01:45.436Z,7.6
2023-03-22T07:06:51.575Z,7.6
2023-03-22T07:11:57.776Z,7.6
2023-03-22T07:17:03.914Z,7.3
2023-03-22T07:22:10.206Z,7.6
2023-03-22T07:27:16.300Z,7.3
2023-03-22T07:32:22.477Z,7.6
2023-03-22T07:37:28.709Z,7.6
2023-03-22T07:42:34.856Z,8
2023-03-22T07:47:41.091Z,7.3
2023-03-22T07:52:47.232Z,7.3
2023-03-22T07:57:52.490Z,8
2023-03-22T08:02:58.707Z,7.6
2023-03-22T08:08:05.017Z,7.3
2023-03-22T08:13:11.050Z,7.6
2023-03-22T08:18:17.396Z,8
2023-03-22T08:23:23.448Z,7.6
2023-03-22T08:28:29.887Z,7.3
2023-03-22T08:33:35.935Z,8
2023-03-22T08:38:42.097Z,7.6
2023-03-22T08:43:48.224Z,8
2023-03-22T08:48:54.508Z,8
2023-03-22T08:54:00.640Z,7.6
2023-03-22T08:59:06.889Z,8
2023-03-22T09:04:13.132Z,7.6
2023-03-22T09:09:18.240Z,8
2023-03-22T09:14:24.364Z,7.6
2023-03-22T09:19:30.692Z,8
2023-03-22T09:24:36.781Z,8.3
2023-03-22T09:29:43.090Z,8.3
2023-03-22T09:34:49.094Z,8.3
2023-03-22T09:39:55.418Z,8
2023-03-22T09:45:01.513Z,7.6
2023-03-22T09:50:07.726Z,8.3
2023-03-22T09:55:13.868Z,8
2023-03-22T10:00:20.180Z,8
2023-03-22T10:05:26.313Z,8
2023-03-22T10:10:32.529Z,8.3
2023-03-22T10:15:37.787Z,8.3
2023-03-22T10:20:43.968Z,8.3
2023-03-22T10:25:50.172Z,8.6
2023-03-22T10:30:56.207Z,8.6
2023-03-22T10:36:02.384Z,8.6
2023-03-22T10:41:08.702Z,8.3
2023-03-22T10:46:14.774Z,8.9
2023-03-22T10:51:20.952Z,8.3
2023-03-22T10:56:27.339Z,8.6
2023-03-22T11:01:33.327Z,8.3
2023-03-22T11:06:39.650Z,8.9
2023-03-22T11:11:45.796Z,8.6
2023-03-22T11:16:51.902Z,8.3
2023-03-22T11:21:57.343Z,8.3
2023-03-22T11:27:03.473Z,8.6
2023-03-22T11:32:09.578Z,8.6
2023-03-22T11:37:15.850Z,8.6
2023-03-22T11:42:21.865Z,8.9
2023-03-22T11:47:28.303Z,9.2
2023-03-22T11:52:34.349Z,9.2
2023-03-22T11:57:40.608Z,8.9
2023-03-22T12:02:46.784Z,8.6
2023-03-22T12:07:52.946Z,8.9
2023-03-22T12:12:58.988Z,9.2
2023-03-22T12:18:05.167Z,9.2
2023-03-22T12:23:11.364Z,8.9
2023-03-22T12:28:16.610Z,9.6
2023-03-22T12:33:22.807Z,9.6
2023-03-22T12:38:28.992Z,9.2
2023-03-22T12:43:35.185Z,10.2
2023-03-22T12:48:41.366Z,9.2
2023-03-22T12:53:47.563Z,9.2
2023-03-22T12:58:53.736Z,9.6
2023-03-22T13:09:06.123Z,9.6
2023-03-22T13:14:12.307Z,9.6
2023-03-22T13:19:18.500Z,9.2
2023-03-22T13:24:24.672Z,9.2
2023-03-22T13:29:30.873Z,9.6
2023-03-22T13:34:36.119Z,9.6
2023-03-22T13:39:42.309Z,9.2
2023-03-22T13:44:48.478Z,10.2
2023-03-22T13:49:54.711Z,9.6
2023-03-22T13:55:00.831Z,9.6
2023-03-22T14:00:07.028Z,9.6
2023-03-22T14:05:13.218Z,9.6
2023-03-22T14:10:19.393Z,9.6
2023-03-22T14:15:25.603Z,9.9
2023-03-22T14:20:31.767Z,9.2
2023-03-22T14:56:14.131Z,9.2
2023-03-22T15:01:20.427Z,9.6
2023-03-22T15:06:26.602Z,9.9
2023-03-22T15:11:32.734Z,9.9
2023-03-22T15:16:39.055Z,9.2
2023-03-22T15:21:45.269Z,9.9
2023-03-22T15:26:51.440Z,9.9
2023-03-22T15:31:57.617Z,9.6
2023-03-22T15:37:03.638Z,9.9
2023-03-22T15:42:09.882Z,9.6
2023-03-22T15:47:15.229Z,10.2
2023-03-22T15:52:21.363Z,9.9
2023-03-22T15:57:27.597Z,9.9
2023-03-22T16:02:33.809Z,9.6
2023-03-22T16:07:39.988Z,9.6
2023-03-22T16:12:46.201Z,9.2
2023-03-22T16:17:52.359Z,9.9
2023-03-22T16:22:58.528Z,9.6
2023-03-22T16:28:04.709Z,9.9
2023-03-22T16:33:10.779Z,9.9
2023-03-22T16:38:17.139Z,9.9
2023-03-22T16:43:23.268Z,9.9
2023-03-22T16:48:29.557Z,9.6
2023-03-22T16:53:34.706Z,9.9
2023-03-22T16:58:40.948Z,9.6
2023-03-22T17:03:46.924Z,9.9
2023-03-22T17:08:52.351Z,9.2
2023-03-22T17:13:58.587Z,9.9
2023-03-22T17:19:04.735Z,9.9
2023-03-22T17:24:10.882Z,9.6
2023-03-22T17:29:17.133Z,9.6
2023-03-22T17:34:23.282Z,9.6
2023-03-22T17:39:29.488Z,9.6
2023-03-22T17:44:35.667Z,9.2
2023-03-22T17:49:41.867Z,9.6
2023-03-22T17:54:48.045Z,9.6
2023-03-22T17:59:54.176Z,9.6
2023-03-22T18:05:00.432Z,9.9
2023-03-22T18:10:06.621Z,9.2
2023-03-22T18:15:11.827Z,9.6
2023-03-22T18:20:17.983Z,9.6
2023-03-22T18:25:24.177Z,10.2
2023-03-22T18:30:30.293Z,9.6
2023-03-22T18:35:36.617Z,9.6
2023-03-22T18:40:42.797Z,9.6
2023-03-22T18:45:48.969Z,9.6
2023-03-22T18:50:55.177Z,9.6
2023-03-22T18:56:01.348Z,9.6
2023-03-22T19:01:07.556Z,9.2
2023-03-22T19:06:13.560Z,9.2
2023-03-22T19:11:19.976Z,9.6
2023-03-22T19:16:26.145Z,9.2
2023-03-22T19:21:31.356Z,8.9
2023-03-22T19:26:37.547Z,9.9
2023-03-22T19:31:43.780Z,9.2
2023-03-22T19:36:49.757Z,9.6
2023-03-22T19:41:56.081Z,9.6
2023-03-22T19:47:02.122Z,9.2
2023-03-22T19:52:08.489Z,9.2
2023-03-22T19:57:14.511Z,9.2
2023-03-22T20:02:20.961Z,9.2
2023-03-22T20:07:26.905Z,9.6
2023-03-22T20:12:33.268Z,9.2
2023-03-22T20:17:39.423Z,8.9
2023-03-22T20:22:45.504Z,9.9
2023-03-22T20:27:50.866Z,9.2
2023-03-22T20:32:56.875Z,9.6
2023-03-22T20:38:03.238Z,9.6
2023-03-22T20:43:09.409Z,9.2
2023-03-22T20:48:15.652Z,9.2
2023-03-22T20:53:21.850Z,8.9
2023-03-22T20:58:28.045Z,9.2
2023-03-22T21:03:34.176Z,8.9
2023-03-22T21:08:40.223Z,9.6
2023-03-22T21:13:46.600Z,9.2
2023-03-22T21:18:52.683Z,9.2
2023-03-22T21:23:58.966Z,9.6
2023-03-22T21:29:05.079Z,9.6
2023-03-22T21:34:11.354Z,9.6
2023-03-22T21:39:16.607Z,9.6
2023-03-22T21:44:22.776Z,8.9
2023-03-22T21:49:28.951Z,9.6
2023-03-22T21:54:35.160Z,9.2
2023-03-22T21:59:41.354Z,8.9
2023-03-22T22:04:47.541Z,9.2
2023-03-22T22:09:53.711Z,9.2
2023-03-22T22:14:59.905Z,8.9
2023-03-22T22:20:06.087Z,8.9
2023-03-22T22:25:12.266Z,8.9
2023-03-22T22:30:18.455Z,9.6
2023-03-22T22:35:24.623Z,8.9
2023-03-22T22:40:30.728Z,9.2
2023-03-22T22:45:36.033Z,8.9
2023-03-22T22:50:42.249Z,8.9
2023-03-22T22:55:48.352Z,8.6
2023-03-22T23:00:54.477Z,9.2
2023-03-22T23:06:00.679Z,9.2
2023-03-22T23:11:06.846Z,8.9
2023-03-22T23:16:13.140Z,9.6
2023-03-22T23:21:19.386Z,9.6
2023-03-22T23:26:25.422Z,8.9
2023-03-22T23:31:31.770Z,8.6
2023-03-22T23:36:37.939Z,8.9
2023-03-22T23:41:43.981Z,9.6
2023-03-22T23:46:50.181Z,8.9
2023-03-22T23:51:55.591Z,8.9
2023-03-22T23:57:01.684Z,8.6
